sensor_id;sensor_type;location;lat;lon;timestamp;temperature;humidity
8888;DHT22;4480;52.370;9.748;2023-10-08T00:00:43;12.70;99.90
8888;DHT22;4480;52.370;9.748;2023-10-08T00:03:14;12.70;99.90
8888;DHT22;4480;52.370;9.748;2023-10-08T00:05:41;12.60;99.90
8888;DHT22;4480;52.370;9.748;2023-10-08T00:08:08;12.60;99.90
8888;DHT22;4480;52.370;9.748;2023-10-08T00:10:36;12.50;99.90
8888;DHT22;4480;52.370;9.748;2023-10-08T00:13:05;12.50;99.90
8888;DHT22;4480;52.370;9.748;2023-10-08T00:15:33;12.40;99.90
8888;DHT22;4480;52.370;9.748;2023-10-08T00:18:02;12.30;99.90
8888;DHT22;4480;52.370;9.748;2023-10-08T00:20:32;12.30;99.90
8888;DHT22;4480;52.370;9.748;2023-10-08T00:23:07;12.20;99.90
8888;DHT22;4480;52.370;9.748;2023-10-08T00:25:35;12.20;99.90
8888;DHT22;4480;52.370;9.748;2023-10-08T00:28:07;12.20;99.90
8888;DHT22;4480;52.370;9.748;2023-10-08T00:30:38;12.10;99.90
8888;DHT22;4480;52.370;9.748;2023-10-08T00:33:05;12.10;99.90
8888;DHT22;4480;52.370;9.748;2023-10-08T00:35:38;12.00;99.90
8888;DHT22;4480;52.370;9.748;2023-10-08T00:38:07;12.00;99.90
8888;DHT22;4480;52.370;9.748;2023-10-08T00:40:40;11.90;99.90
8888;DHT22;4480;52.370;9.748;2023-10-08T00:45:52;11.80;99.90
8888;DHT22;4480;52.370;9.748;2023-10-08T00:48:19;11.80;99.90
8888;DHT22;4480;52.370;9.748;2023-10-08T00:50:55;11.70;99.90
8888;DHT22;4480;52.370;9.748;2023-10-08T00:53:35;11.70;99.90
8888;DHT22;4480;52.370;9.748;2023-10-08T00:56:05;11.60;99.90
8888;DHT22;4480;52.370;9.748;2023-10-08T00:58:37;11.60;99.90
8888;DHT22;4480;52.370;9.748;2023-10-08T01:01:06;11.60;99.90
8888;DHT22;4480;52.370;9.748;2023-10-08T01:03:35;11.60;99.90
8888;DHT22;4480;52.370;9.748;2023-10-08T01:06:06;11.60;99.90
8888;DHT22;4480;52.370;9.748;2023-10-08T01:08:36;11.50;99.90
8888;DHT22;4480;52.370;9.748;2023-10-08T01:11:16;11.50;99.90
8888;DHT22;4480;52.370;9.748;2023-10-08T01:13:43;11.40;99.90
8888;DHT22;4480;52.370;9.748;2023-10-08T01:16:12;11.40;99.90
8888;DHT22;4480;52.370;9.748;2023-10-08T01:18:39;11.40;99.90
8888;DHT22;4480;52.370;9.748;2023-10-08T01:21:18;11.20;99.90
8888;DHT22;4480;52.370;9.748;2023-10-08T01:24:01;11.10;99.90
8888;DHT22;4480;52.370;9.748;2023-10-08T01:26:31;11.00;99.90
8888;DHT22;4480;52.370;9.748;2023-10-08T01:28:58;10.90;99.90
8888;DHT22;4480;52.370;9.748;2023-10-08T01:31:28;10.90;99.90
8888;DHT22;4480;52.370;9.748;2023-10-08T01:33:55;10.90;99.90
8888;DHT22;4480;52.370;9.748;2023-10-08T01:36:23;10.80;99.90
8888;DHT22;4480;52.370;9.748;2023-10-08T01:38:51;10.90;99.90
8888;DHT22;4480;52.370;9.748;2023-10-08T01:41:21;10.90;99.90
8888;DHT22;4480;52.370;9.748;2023-10-08T01:43:55;10.90;99.90
8888;DHT22;4480;52.370;9.748;2023-10-08T01:46:24;10.90;99.90
8888;DHT22;4480;52.370;9.748;2023-10-08T01:48:52;10.90;99.90
8888;DHT22;4480;52.370;9.748;2023-10-08T01:51:28;10.90;99.90
8888;DHT22;4480;52.370;9.748;2023-10-08T01:54:03;11.00;99.90
8888;DHT22;4480;52.370;9.748;2023-10-08T01:56:37;11.00;99.90
8888;DHT22;4480;52.370;9.748;2023-10-08T01:59:07;10.90;99.90
8888;DHT22;4480;52.370;9.748;2023-10-08T02:01:34;10.90;99.90
8888;DHT22;4480;52.370;9.748;2023-10-08T02:04:00;11.00;99.90
8888;DHT22;4480;52.370;9.748;2023-10-08T02:06:28;11.00;99.90
8888;DHT22;4480;52.370;9.748;2023-10-08T02:08:56;11.00;99.90
8888;DHT22;4480;52.370;9.748;2023-10-08T02:11:24;11.00;99.90
8888;DHT22;4480;52.370;9.748;2023-10-08T02:13:54;11.00;99.90
8888;DHT22;4480;52.370;9.748;2023-10-08T02:16:21;11.00;99.90
8888;DHT22;4480;52.370;9.748;2023-10-08T02:18:48;11.10;99.90
8888;DHT22;4480;52.370;9.748;2023-10-08T02:21:16;11.10;99.90
8888;DHT22;4480;52.370;9.748;2023-10-08T02:23:43;11.10;99.90
8888;DHT22;4480;52.370;9.748;2023-10-08T02:26:10;11.10;99.90
8888;DHT22;4480;52.370;9.748;2023-10-08T02:28:37;11.20;99.90
8888;DHT22;4480;52.370;9.748;2023-10-08T02:31:05;11.10;99.90
8888;DHT22;4480;52.370;9.748;2023-10-08T02:33:34;11.10;99.90
8888;DHT22;4480;52.370;9.748;2023-10-08T02:36:02;11.10;99.90
8888;DHT22;4480;52.370;9.748;2023-10-08T02:38:30;11.20;99.90
8888;DHT22;4480;52.370;9.748;2023-10-08T02:41:03;11.10;99.90
8888;DHT22;4480;52.370;9.748;2023-10-08T02:43:32;11.10;99.90
8888;DHT22;4480;52.370;9.748;2023-10-08T02:45:59;11.10;99.90
8888;DHT22;4480;52.370;9.748;2023-10-08T02:48:27;11.10;99.90
8888;DHT22;4480;52.370;9.748;2023-10-08T02:50:55;11.10;99.90
8888;DHT22;4480;52.370;9.748;2023-10-08T02:53:32;11.10;99.90
8888;DHT22;4480;52.370;9.748;2023-10-08T02:55:59;11.10;99.90
8888;DHT22;4480;52.370;9.748;2023-10-08T02:58:26;11.20;99.90
8888;DHT22;4480;52.370;9.748;2023-10-08T03:00:53;11.20;99.90
8888;DHT22;4480;52.370;9.748;2023-10-08T03:03:20;11.20;99.90
8888;DHT22;4480;52.370;9.748;2023-10-08T03:05:52;11.20;99.90
8888;DHT22;4480;52.370;9.748;2023-10-08T03:08:22;11.20;99.90
8888;DHT22;4480;52.370;9.748;2023-10-08T03:10:50;11.20;99.90
8888;DHT22;4480;52.370;9.748;2023-10-08T03:13:21;11.20;99.90
8888;DHT22;4480;52.370;9.748;2023-10-08T03:15:48;11.20;99.90
8888;DHT22;4480;52.370;9.748;2023-10-08T03:18:33;11.30;99.90
8888;DHT22;4480;52.370;9.748;2023-10-08T03:21:03;11.30;99.90
8888;DHT22;4480;52.370;9.748;2023-10-08T03:23:39;11.30;99.90
8888;DHT22;4480;52.370;9.748;2023-10-08T03:26:13;11.30;99.90
8888;DHT22;4480;52.370;9.748;2023-10-08T03:29:00;11.30;99.90
8888;DHT22;4480;52.370;9.748;2023-10-08T03:31:30;11.30;99.90
8888;DHT22;4480;52.370;9.748;2023-10-08T03:34:15;11.30;99.90
8888;DHT22;4480;52.370;9.748;2023-10-08T03:36:47;11.30;99.90
8888;DHT22;4480;52.370;9.748;2023-10-08T03:39:15;11.30;99.90
8888;DHT22;4480;52.370;9.748;2023-10-08T03:41:45;11.30;99.90
8888;DHT22;4480;52.370;9.748;2023-10-08T03:44:25;11.30;99.90
8888;DHT22;4480;52.370;9.748;2023-10-08T03:46:55;11.30;99.90
8888;DHT22;4480;52.370;9.748;2023-10-08T03:49:22;11.20;99.90
8888;DHT22;4480;52.370;9.748;2023-10-08T03:51:53;11.30;99.90
8888;DHT22;4480;52.370;9.748;2023-10-08T03:54:23;11.30;99.90
8888;DHT22;4480;52.370;9.748;2023-10-08T03:57:00;11.30;99.90
8888;DHT22;4480;52.370;9.748;2023-10-08T03:59:30;11.30;99.90
8888;DHT22;4480;52.370;9.748;2023-10-08T04:01:57;11.30;99.90
8888;DHT22;4480;52.370;9.748;2023-10-08T04:04:35;11.30;99.90
8888;DHT22;4480;52.370;9.748;2023-10-08T04:07:17;11.30;99.90
8888;DHT22;4480;52.370;9.748;2023-10-08T04:12:19;11.30;99.90
8888;DHT22;4480;52.370;9.748;2023-10-08T04:14:46;11.30;99.90
8888;DHT22;4480;52.370;9.748;2023-10-08T04:17:13;11.30;99.90
8888;DHT22;4480;52.370;9.748;2023-10-08T04:19:47;11.30;99.90
8888;DHT22;4480;52.370;9.748;2023-10-08T04:22:14;11.30;99.90
8888;DHT22;4480;52.370;9.748;2023-10-08T04:24:43;11.20;99.90
8888;DHT22;4480;52.370;9.748;2023-10-08T04:27:10;11.30;99.90
8888;DHT22;4480;52.370;9.748;2023-10-08T04:29:41;11.20;99.90
8888;DHT22;4480;52.370;9.748;2023-10-08T04:32:08;11.20;99.90
8888;DHT22;4480;52.370;9.748;2023-10-08T04:34:37;11.20;99.90
8888;DHT22;4480;52.370;9.748;2023-10-08T04:37:09;11.20;99.90
8888;DHT22;4480;52.370;9.748;2023-10-08T04:39:38;11.20;99.90
8888;DHT22;4480;52.370;9.748;2023-10-08T04:42:06;11.20;99.90
8888;DHT22;4480;52.370;9.748;2023-10-08T04:44:36;11.20;99.90
8888;DHT22;4480;52.370;9.748;2023-10-08T04:47:06;11.20;99.90
8888;DHT22;4480;52.370;9.748;2023-10-08T04:49:53;11.20;99.90
8888;DHT22;4480;52.370;9.748;2023-10-08T04:52:22;11.20;99.90
8888;DHT22;4480;52.370;9.748;2023-10-08T04:54:51;11.20;99.90
8888;DHT22;4480;52.370;9.748;2023-10-08T04:57:20;11.20;99.90
8888;DHT22;4480;52.370;9.748;2023-10-08T04:59:48;11.20;99.90
8888;DHT22;4480;52.370;9.748;2023-10-08T05:02:18;11.20;99.90
8888;DHT22;4480;52.370;9.748;2023-10-08T05:04:49;11.10;99.90
8888;DHT22;4480;52.370;9.748;2023-10-08T05:07:33;11.10;99.90
8888;DHT22;4480;52.370;9.748;2023-10-08T05:10:23;11.10;99.90
8888;DHT22;4480;52.370;9.748;2023-10-08T05:13:07;11.10;99.90
8888;DHT22;4480;52.370;9.748;2023-10-08T05:15:42;11.10;99.90
8888;DHT22;4480;52.370;9.748;2023-10-08T05:18:28;11.10;99.90
8888;DHT22;4480;52.370;9.748;2023-10-08T05:21:19;11.10;99.90
8888;DHT22;4480;52.370;9.748;2023-10-08T05:23:53;11.10;99.90
8888;DHT22;4480;52.370;9.748;2023-10-08T05:26:42;11.10;99.90
8888;DHT22;4480;52.370;9.748;2023-10-08T05:29:14;11.10;99.90
8888;DHT22;4480;52.370;9.748;2023-10-08T05:32:10;11.10;99.90
8888;DHT22;4480;52.370;9.748;2023-10-08T05:34:56;11.10;99.90
8888;DHT22;4480;52.370;9.748;2023-10-08T05:37:42;11.10;99.90
8888;DHT22;4480;52.370;9.748;2023-10-08T05:40:13;11.10;99.90
8888;DHT22;4480;52.370;9.748;2023-10-08T05:43:03;11.10;99.90
8888;DHT22;4480;52.370;9.748;2023-10-08T05:45:48;11.10;99.90
8888;DHT22;4480;52.370;9.748;2023-10-08T05:48:39;11.10;99.90
8888;DHT22;4480;52.370;9.748;2023-10-08T05:51:12;11.10;99.90
8888;DHT22;4480;52.370;9.748;2023-10-08T05:53:49;11.20;99.90
8888;DHT22;4480;52.370;9.748;2023-10-08T05:56:21;11.20;99.90
8888;DHT22;4480;52.370;9.748;2023-10-08T05:58:54;11.20;99.90
8888;DHT22;4480;52.370;9.748;2023-10-08T06:01:41;11.20;99.90
8888;DHT22;4480;52.370;9.748;2023-10-08T06:04:11;11.20;99.90
8888;DHT22;4480;52.370;9.748;2023-10-08T06:07:08;11.30;99.90
8888;DHT22;4480;52.370;9.748;2023-10-08T06:09:58;11.30;99.90
8888;DHT22;4480;52.370;9.748;2023-10-08T06:12:28;11.30;99.90
8888;DHT22;4480;52.370;9.748;2023-10-08T06:14:56;11.30;99.90
8888;DHT22;4480;52.370;9.748;2023-10-08T06:17:37;11.30;99.90
8888;DHT22;4480;52.370;9.748;2023-10-08T06:20:22;11.40;99.90
8888;DHT22;4480;52.370;9.748;2023-10-08T06:22:53;11.40;99.90
8888;DHT22;4480;52.370;9.748;2023-10-08T06:25:27;11.50;99.90
8888;DHT22;4480;52.370;9.748;2023-10-08T06:27:53;11.50;99.90
8888;DHT22;4480;52.370;9.748;2023-10-08T06:30:23;11.50;99.90
8888;DHT22;4480;52.370;9.748;2023-10-08T06:32:55;11.60;99.90
8888;DHT22;4480;52.370;9.748;2023-10-08T06:35:22;11.60;99.90
8888;DHT22;4480;52.370;9.748;2023-10-08T06:37:51;11.60;99.90
8888;DHT22;4480;52.370;9.748;2023-10-08T06:40:22;11.70;99.90
8888;DHT22;4480;52.370;9.748;2023-10-08T06:43:08;11.70;99.90
8888;DHT22;4480;52.370;9.748;2023-10-08T06:45:40;11.70;99.90
8888;DHT22;4480;52.370;9.748;2023-10-08T06:48:07;11.70;99.90
8888;DHT22;4480;52.370;9.748;2023-10-08T06:50:34;11.80;99.90
8888;DHT22;4480;52.370;9.748;2023-10-08T06:53:02;11.80;99.90
8888;DHT22;4480;52.370;9.748;2023-10-08T06:55:33;11.80;99.90
8888;DHT22;4480;52.370;9.748;2023-10-08T06:58:01;11.90;99.90
8888;DHT22;4480;52.370;9.748;2023-10-08T07:00:31;12.00;99.90
8888;DHT22;4480;52.370;9.748;2023-10-08T07:03:06;12.10;99.90
8888;DHT22;4480;52.370;9.748;2023-10-08T07:05:36;12.10;99.90
8888;DHT22;4480;52.370;9.748;2023-10-08T07:08:07;12.20;99.90
8888;DHT22;4480;52.370;9.748;2023-10-08T07:10:35;12.10;99.90
8888;DHT22;4480;52.370;9.748;2023-10-08T07:13:03;12.20;99.90
8888;DHT22;4480;52.370;9.748;2023-10-08T07:15:33;12.10;99.90
8888;DHT22;4480;52.370;9.748;2023-10-08T07:18:04;12.10;99.90
8888;DHT22;4480;52.370;9.748;2023-10-08T07:20:39;12.20;99.90
8888;DHT22;4480;52.370;9.748;2023-10-08T07:23:07;12.30;99.90
8888;DHT22;4480;52.370;9.748;2023-10-08T07:25:46;12.40;99.90
8888;DHT22;4480;52.370;9.748;2023-10-08T07:28:18;12.50;99.90
8888;DHT22;4480;52.370;9.748;2023-10-08T07:30:45;12.60;99.90
8888;DHT22;4480;52.370;9.748;2023-10-08T07:33:13;12.70;99.90
8888;DHT22;4480;52.370;9.748;2023-10-08T07:35:44;12.80;99.90
8888;DHT22;4480;52.370;9.748;2023-10-08T07:38:18;12.90;99.90
8888;DHT22;4480;52.370;9.748;2023-10-08T07:40:48;12.90;99.90
8888;DHT22;4480;52.370;9.748;2023-10-08T07:43:15;12.90;99.90
8888;DHT22;4480;52.370;9.748;2023-10-08T07:45:46;12.80;99.90
8888;DHT22;4480;52.370;9.748;2023-10-08T07:48:12;12.80;99.90
8888;DHT22;4480;52.370;9.748;2023-10-08T07:50:44;12.80;99.90
8888;DHT22;4480;52.370;9.748;2023-10-08T07:53:12;12.90;99.90
8888;DHT22;4480;52.370;9.748;2023-10-08T07:55:45;13.00;99.90
8888;DHT22;4480;52.370;9.748;2023-10-08T07:58:15;13.00;99.90
8888;DHT22;4480;52.370;9.748;2023-10-08T08:00:42;13.00;99.90
8888;DHT22;4480;52.370;9.748;2023-10-08T08:03:18;13.00;99.90
8888;DHT22;4480;52.370;9.748;2023-10-08T08:05:45;13.10;99.90
8888;DHT22;4480;52.370;9.748;2023-10-08T08:08:12;13.10;99.90
8888;DHT22;4480;52.370;9.748;2023-10-08T08:10:43;13.20;99.90
8888;DHT22;4480;52.370;9.748;2023-10-08T08:13:11;13.30;99.90
8888;DHT22;4480;52.370;9.748;2023-10-08T08:15:39;13.30;99.90
8888;DHT22;4480;52.370;9.748;2023-10-08T08:18:09;13.40;99.90
8888;DHT22;4480;52.370;9.748;2023-10-08T08:20:48;13.40;99.90
8888;DHT22;4480;52.370;9.748;2023-10-08T08:23:14;13.50;99.90
8888;DHT22;4480;52.370;9.748;2023-10-08T08:25:43;13.60;99.90
8888;DHT22;4480;52.370;9.748;2023-10-08T08:28:22;13.70;99.90
8888;DHT22;4480;52.370;9.748;2023-10-08T08:30:51;13.80;99.90
8888;DHT22;4480;52.370;9.748;2023-10-08T08:33:20;13.80;99.90
8888;DHT22;4480;52.370;9.748;2023-10-08T08:35:57;13.90;99.90
8888;DHT22;4480;52.370;9.748;2023-10-08T08:38:25;14.00;99.90
8888;DHT22;4480;52.370;9.748;2023-10-08T08:41:01;14.10;99.90
8888;DHT22;4480;52.370;9.748;2023-10-08T08:43:33;14.20;99.90
8888;DHT22;4480;52.370;9.748;2023-10-08T08:46:03;14.30;99.90
8888;DHT22;4480;52.370;9.748;2023-10-08T08:48:34;14.30;99.90
8888;DHT22;4480;52.370;9.748;2023-10-08T08:51:01;14.30;99.90
8888;DHT22;4480;52.370;9.748;2023-10-08T08:53:28;14.30;99.90
8888;DHT22;4480;52.370;9.748;2023-10-08T08:55:55;14.20;99.90
8888;DHT22;4480;52.370;9.748;2023-10-08T08:58:23;14.20;99.90
8888;DHT22;4480;52.370;9.748;2023-10-08T09:00:52;14.40;99.90
8888;DHT22;4480;52.370;9.748;2023-10-08T09:03:20;14.50;99.90
8888;DHT22;4480;52.370;9.748;2023-10-08T09:05:55;14.60;99.90
8888;DHT22;4480;52.370;9.748;2023-10-08T09:08:22;14.50;99.90
8888;DHT22;4480;52.370;9.748;2023-10-08T09:10:50;14.50;99.90
8888;DHT22;4480;52.370;9.748;2023-10-08T09:13:22;14.50;99.90
8888;DHT22;4480;52.370;9.748;2023-10-08T09:15:50;14.40;99.90
8888;DHT22;4480;52.370;9.748;2023-10-08T09:18:23;14.40;99.90
8888;DHT22;4480;52.370;9.748;2023-10-08T09:20:52;14.40;99.90
8888;DHT22;4480;52.370;9.748;2023-10-08T09:23:20;14.60;99.90
8888;DHT22;4480;52.370;9.748;2023-10-08T09:25:49;14.90;99.90
8888;DHT22;4480;52.370;9.748;2023-10-08T09:28:18;15.20;99.90
8888;DHT22;4480;52.370;9.748;2023-10-08T09:30:44;15.40;99.90
8888;DHT22;4480;52.370;9.748;2023-10-08T09:33:14;15.50;99.90
8888;DHT22;4480;52.370;9.748;2023-10-08T09:35:43;15.40;99.90
8888;DHT22;4480;52.370;9.748;2023-10-08T09:38:09;15.30;99.90
8888;DHT22;4480;52.370;9.748;2023-10-08T09:40:37;15.10;99.90
8888;DHT22;4480;52.370;9.748;2023-10-08T09:43:04;14.80;99.90
8888;DHT22;4480;52.370;9.748;2023-10-08T09:45:34;14.70;99.90
8888;DHT22;4480;52.370;9.748;2023-10-08T09:48:03;14.60;99.90
8888;DHT22;4480;52.370;9.748;2023-10-08T09:50:35;14.50;99.90
8888;DHT22;4480;52.370;9.748;2023-10-08T09:53:08;14.40;99.90
8888;DHT22;4480;52.370;9.748;2023-10-08T09:55:43;14.50;99.90
8888;DHT22;4480;52.370;9.748;2023-10-08T09:58:12;14.70;99.90
8888;DHT22;4480;52.370;9.748;2023-10-08T10:00:40;14.90;99.90
8888;DHT22;4480;52.370;9.748;2023-10-08T10:03:10;15.10;99.90
8888;DHT22;4480;52.370;9.748;2023-10-08T10:05:38;15.30;99.90
8888;DHT22;4480;52.370;9.748;2023-10-08T10:08:08;15.50;99.70
8888;DHT22;4480;52.370;9.748;2023-10-08T10:10:37;15.80;98.90
8888;DHT22;4480;52.370;9.748;2023-10-08T10:13:05;16.10;97.90
8888;DHT22;4480;52.370;9.748;2023-10-08T10:15:33;16.40;95.70
8888;DHT22;4480;52.370;9.748;2023-10-08T10:18:08;16.50;93.00
8888;DHT22;4480;52.370;9.748;2023-10-08T10:20:39;16.40;91.10
8888;DHT22;4480;52.370;9.748;2023-10-08T10:23:36;16.50;90.10
8888;DHT22;4480;52.370;9.748;2023-10-08T10:26:20;16.40;86.70
8888;DHT22;4480;52.370;9.748;2023-10-08T10:29:19;16.40;85.70
8888;DHT22;4480;52.370;9.748;2023-10-08T10:31:48;16.30;85.20
8888;DHT22;4480;52.370;9.748;2023-10-08T10:34:18;16.10;84.00
8888;DHT22;4480;52.370;9.748;2023-10-08T10:36:46;15.90;83.30
8888;DHT22;4480;52.370;9.748;2023-10-08T10:39:17;15.80;84.00
8888;DHT22;4480;52.370;9.748;2023-10-08T10:41:53;15.80;84.10
8888;DHT22;4480;52.370;9.748;2023-10-08T10:44:23;15.80;83.70
8888;DHT22;4480;52.370;9.748;2023-10-08T10:46:50;16.00;83.50
8888;DHT22;4480;52.370;9.748;2023-10-08T10:49:17;16.10;82.20
8888;DHT22;4480;52.370;9.748;2023-10-08T10:51:45;16.30;81.50
8888;DHT22;4480;52.370;9.748;2023-10-08T10:54:13;16.50;80.40
8888;DHT22;4480;52.370;9.748;2023-10-08T10:56:47;16.70;79.10
8888;DHT22;4480;52.370;9.748;2023-10-08T10:59:28;16.90;77.60
8888;DHT22;4480;52.370;9.748;2023-10-08T11:02:02;17.00;76.40
8888;DHT22;4480;52.370;9.748;2023-10-08T11:04:34;17.10;75.80
8888;DHT22;4480;52.370;9.748;2023-10-08T11:07:13;17.30;74.30
8888;DHT22;4480;52.370;9.748;2023-10-08T11:09:42;17.60;72.60
8888;DHT22;4480;52.370;9.748;2023-10-08T11:12:13;17.70;70.70
8888;DHT22;4480;52.370;9.748;2023-10-08T11:14:46;17.70;68.90
8888;DHT22;4480;52.370;9.748;2023-10-08T11:17:14;17.50;67.50
8888;DHT22;4480;52.370;9.748;2023-10-08T11:19:41;17.40;67.70
8888;DHT22;4480;52.370;9.748;2023-10-08T11:22:11;17.30;67.80
8888;DHT22;4480;52.370;9.748;2023-10-08T11:24:42;17.30;67.30
8888;DHT22;4480;52.370;9.748;2023-10-08T11:27:16;17.50;67.10
8888;DHT22;4480;52.370;9.748;2023-10-08T11:29:54;17.60;66.40
8888;DHT22;4480;52.370;9.748;2023-10-08T11:32:24;17.80;65.90
8888;DHT22;4480;52.370;9.748;2023-10-08T11:34:54;18.00;65.10
8888;DHT22;4480;52.370;9.748;2023-10-08T11:37:27;18.00;64.70
8888;DHT22;4480;52.370;9.748;2023-10-08T11:39:55;18.10;64.70
8888;DHT22;4480;52.370;9.748;2023-10-08T11:42:25;18.20;63.90
8888;DHT22;4480;52.370;9.748;2023-10-08T11:45:09;18.20;63.70
8888;DHT22;4480;52.370;9.748;2023-10-08T11:47:49;17.90;63.40
8888;DHT22;4480;52.370;9.748;2023-10-08T11:50:23;17.80;63.90
8888;DHT22;4480;52.370;9.748;2023-10-08T11:52:56;17.90;63.70
8888;DHT22;4480;52.370;9.748;2023-10-08T11:55:27;18.00;63.30
8888;DHT22;4480;52.370;9.748;2023-10-08T11:57:55;18.00;62.00
8888;DHT22;4480;52.370;9.748;2023-10-08T12:00:23;18.00;62.10
8888;DHT22;4480;52.370;9.748;2023-10-08T12:02:52;18.10;61.20
8888;DHT22;4480;52.370;9.748;2023-10-08T12:05:20;18.10;60.00
8888;DHT22;4480;52.370;9.748;2023-10-08T12:07:49;18.10;59.50
8888;DHT22;4480;52.370;9.748;2023-10-08T12:10:17;18.00;59.70
8888;DHT22;4480;52.370;9.748;2023-10-08T12:12:48;18.00;59.90
8888;DHT22;4480;52.370;9.748;2023-10-08T12:15:16;18.00;59.30
8888;DHT22;4480;52.370;9.748;2023-10-08T12:17:46;17.90;58.80
8888;DHT22;4480;52.370;9.748;2023-10-08T12:20:34;17.80;58.60
8888;DHT22;4480;52.370;9.748;2023-10-08T12:23:03;17.50;58.20
8888;DHT22;4480;52.370;9.748;2023-10-08T12:25:30;17.40;58.60
8888;DHT22;4480;52.370;9.748;2023-10-08T12:27:58;17.20;59.10
8888;DHT22;4480;52.370;9.748;2023-10-08T12:30:29;17.10;59.60
8888;DHT22;4480;52.370;9.748;2023-10-08T12:32:57;17.10;59.70
8888;DHT22;4480;52.370;9.748;2023-10-08T12:35:25;17.00;60.00
8888;DHT22;4480;52.370;9.748;2023-10-08T12:37:52;16.90;60.20
8888;DHT22;4480;52.370;9.748;2023-10-08T12:40:20;16.80;60.60
8888;DHT22;4480;52.370;9.748;2023-10-08T12:42:52;16.80;61.10
8888;DHT22;4480;52.370;9.748;2023-10-08T12:45:20;16.80;61.50
8888;DHT22;4480;52.370;9.748;2023-10-08T12:47:49;16.80;61.80
8888;DHT22;4480;52.370;9.748;2023-10-08T12:50:16;17.00;62.50
8888;DHT22;4480;52.370;9.748;2023-10-08T12:52:49;17.20;62.70
8888;DHT22;4480;52.370;9.748;2023-10-08T12:55:21;17.30;62.60
8888;DHT22;4480;52.370;9.748;2023-10-08T12:57:50;17.40;62.70
8888;DHT22;4480;52.370;9.748;2023-10-08T13:00:22;17.40;62.80
8888;DHT22;4480;52.370;9.748;2023-10-08T13:02:51;17.30;62.70
8888;DHT22;4480;52.370;9.748;2023-10-08T13:05:20;17.30;62.90
8888;DHT22;4480;52.370;9.748;2023-10-08T13:07:54;17.30;63.10
8888;DHT22;4480;52.370;9.748;2023-10-08T13:10:22;17.40;63.40
8888;DHT22;4480;52.370;9.748;2023-10-08T13:12:48;17.50;63.20
8888;DHT22;4480;52.370;9.748;2023-10-08T13:15:15;17.60;62.70
8888;DHT22;4480;52.370;9.748;2023-10-08T13:17:43;17.60;62.40
8888;DHT22;4480;52.370;9.748;2023-10-08T13:20:12;17.60;62.20
8888;DHT22;4480;52.370;9.748;2023-10-08T13:22:40;17.80;62.30
8888;DHT22;4480;52.370;9.748;2023-10-08T13:25:09;17.90;62.30
8888;DHT22;4480;52.370;9.748;2023-10-08T13:27:37;18.10;61.50
8888;DHT22;4480;52.370;9.748;2023-10-08T13:30:06;18.10;61.00
8888;DHT22;4480;52.370;9.748;2023-10-08T13:32:35;18.10;60.70
8888;DHT22;4480;52.370;9.748;2023-10-08T13:35:03;17.90;59.90
8888;DHT22;4480;52.370;9.748;2023-10-08T13:37:33;17.70;59.70
8888;DHT22;4480;52.370;9.748;2023-10-08T13:40:00;17.40;59.60
8888;DHT22;4480;52.370;9.748;2023-10-08T13:42:27;17.30;60.00
8888;DHT22;4480;52.370;9.748;2023-10-08T13:44:54;17.20;60.20
8888;DHT22;4480;52.370;9.748;2023-10-08T13:47:23;17.20;60.20
8888;DHT22;4480;52.370;9.748;2023-10-08T13:49:51;17.30;59.90
8888;DHT22;4480;52.370;9.748;2023-10-08T13:52:18;17.40;59.50
8888;DHT22;4480;52.370;9.748;2023-10-08T13:54:52;17.50;59.20
8888;DHT22;4480;52.370;9.748;2023-10-08T13:57:19;17.60;58.90
8888;DHT22;4480;52.370;9.748;2023-10-08T13:59:46;17.80;58.90
8888;DHT22;4480;52.370;9.748;2023-10-08T14:02:13;17.90;58.80
8888;DHT22;4480;52.370;9.748;2023-10-08T14:04:41;18.10;58.80
8888;DHT22;4480;52.370;9.748;2023-10-08T14:07:09;18.30;58.50
8888;DHT22;4480;52.370;9.748;2023-10-08T14:09:37;18.50;57.80
8888;DHT22;4480;52.370;9.748;2023-10-08T14:12:08;18.50;57.00
8888;DHT22;4480;52.370;9.748;2023-10-08T14:14:36;18.50;56.70
8888;DHT22;4480;52.370;9.748;2023-10-08T14:17:07;18.40;56.20
8888;DHT22;4480;52.370;9.748;2023-10-08T14:19:40;18.10;55.50
8888;DHT22;4480;52.370;9.748;2023-10-08T14:22:11;17.90;55.60
8888;DHT22;4480;52.370;9.748;2023-10-08T14:24:40;17.70;55.60
8888;DHT22;4480;52.370;9.748;2023-10-08T14:27:08;17.50;55.80
8888;DHT22;4480;52.370;9.748;2023-10-08T14:29:37;17.30;56.20
8888;DHT22;4480;52.370;9.748;2023-10-08T14:32:06;17.10;56.70
8888;DHT22;4480;52.370;9.748;2023-10-08T14:34:34;17.00;57.40
8888;DHT22;4480;52.370;9.748;2023-10-08T14:37:19;16.80;57.70
8888;DHT22;4480;52.370;9.748;2023-10-08T14:40:03;16.70;57.90
8888;DHT22;4480;52.370;9.748;2023-10-08T14:42:49;16.80;58.10
8888;DHT22;4480;52.370;9.748;2023-10-08T14:45:22;16.70;57.90
8888;DHT22;4480;52.370;9.748;2023-10-08T14:47:52;16.70;57.90
8888;DHT22;4480;52.370;9.748;2023-10-08T14:50:20;16.80;58.10
8888;DHT22;4480;52.370;9.748;2023-10-08T14:52:47;16.80;58.30
8888;DHT22;4480;52.370;9.748;2023-10-08T14:55:15;16.80;58.40
8888;DHT22;4480;52.370;9.748;2023-10-08T14:57:42;16.90;58.70
8888;DHT22;4480;52.370;9.748;2023-10-08T15:00:11;16.90;58.70
8888;DHT22;4480;52.370;9.748;2023-10-08T15:02:38;17.00;59.20
8888;DHT22;4480;52.370;9.748;2023-10-08T15:05:05;17.10;58.80
8888;DHT22;4480;52.370;9.748;2023-10-08T15:07:32;17.20;59.00
8888;DHT22;4480;52.370;9.748;2023-10-08T15:10:00;17.30;59.30
8888;DHT22;4480;52.370;9.748;2023-10-08T15:12:27;17.20;59.30
8888;DHT22;4480;52.370;9.748;2023-10-08T15:14:54;17.20;59.60
8888;DHT22;4480;52.370;9.748;2023-10-08T15:17:22;17.10;59.80
8888;DHT22;4480;52.370;9.748;2023-10-08T15:19:49;17.00;60.00
8888;DHT22;4480;52.370;9.748;2023-10-08T15:22:17;16.90;60.30
8888;DHT22;4480;52.370;9.748;2023-10-08T15:24:43;16.90;60.80
8888;DHT22;4480;52.370;9.748;2023-10-08T15:27:11;16.80;61.20
8888;DHT22;4480;52.370;9.748;2023-10-08T15:29:37;16.70;61.50
8888;DHT22;4480;52.370;9.748;2023-10-08T15:32:04;16.70;61.80
8888;DHT22;4480;52.370;9.748;2023-10-08T15:34:32;16.60;61.90
8888;DHT22;4480;52.370;9.748;2023-10-08T15:36:59;16.50;62.50
8888;DHT22;4480;52.370;9.748;2023-10-08T15:39:26;16.40;63.70
8888;DHT22;4480;52.370;9.748;2023-10-08T15:41:54;16.30;63.60
8888;DHT22;4480;52.370;9.748;2023-10-08T15:44:20;16.20;64.00
8888;DHT22;4480;52.370;9.748;2023-10-08T15:46:48;16.10;64.40
8888;DHT22;4480;52.370;9.748;2023-10-08T15:49:14;16.00;64.80
8888;DHT22;4480;52.370;9.748;2023-10-08T15:51:44;15.90;65.10
8888;DHT22;4480;52.370;9.748;2023-10-08T15:54:11;15.90;66.20
8888;DHT22;4480;52.370;9.748;2023-10-08T15:56:38;15.80;65.90
8888;DHT22;4480;52.370;9.748;2023-10-08T15:59:05;15.80;66.10
8888;DHT22;4480;52.370;9.748;2023-10-08T16:01:31;15.80;66.60
8888;DHT22;4480;52.370;9.748;2023-10-08T16:03:58;15.70;66.90
8888;DHT22;4480;52.370;9.748;2023-10-08T16:06:25;15.70;67.40
8888;DHT22;4480;52.370;9.748;2023-10-08T16:08:53;15.60;67.90
8888;DHT22;4480;52.370;9.748;2023-10-08T16:11:20;15.70;68.40
8888;DHT22;4480;52.370;9.748;2023-10-08T16:13:46;15.60;68.80
8888;DHT22;4480;52.370;9.748;2023-10-08T16:16:13;15.60;69.30
8888;DHT22;4480;52.370;9.748;2023-10-08T16:18:40;15.60;69.70
8888;DHT22;4480;52.370;9.748;2023-10-08T16:21:07;15.50;70.10
8888;DHT22;4480;52.370;9.748;2023-10-08T16:23:37;15.40;70.50
8888;DHT22;4480;52.370;9.748;2023-10-08T16:26:05;15.40;71.10
8888;DHT22;4480;52.370;9.748;2023-10-08T16:28:32;15.40;72.30
8888;DHT22;4480;52.370;9.748;2023-10-08T16:30:59;15.30;72.00